Time;durP1;ratioP1;P1;durP2;ratioP2;P2;SDS_P1;SDS_P2;PMS_P1;PMS_P2;Temp;Humidity;BMP_temperature;BMP_pressure;BME280_temperature;BME280_humidity;BME280_pressure;Samples;Min_cycle;Max_cycle;Signal;HPM_P1;HPM_P2
2023/12/05 00:01:48;;;;;;;33.70;21.52;;;;;;;;;;5144850;27;20051;-76
2023/12/05 00:04:14;;;;;;;35.05;21.17;;;;;;;;;;5144984;27;20644;-76
2023/12/05 00:06:41;;;;;;;31.83;20.75;;;;;;;;;;5145217;27;20047;-76
2023/12/05 00:09:07;;;;;;;34.42;21.00;;;;;;;;;;5144933;27;20146;-74
2023/12/05 00:11:34;;;;;;;30.77;20.40;;;;;;;;;;5144108;27;20441;-75
2023/12/05 00:14:00;;;;;;;28.63;19.30;;;;;;;;;;5143321;27;20062;-76
2023/12/05 00:16:27;;;;;;;33.40;20.33;;;;;;;;;;5144575;27;20504;-76
2023/12/05 00:18:53;;;;;;;30.55;20.58;;;;;;;;;;5143968;27;20738;-76
2023/12/05 00:21:20;;;;;;;35.30;22.02;;;;;;;;;;5144977;27;20059;-76
2023/12/05 00:23:46;;;;;;;31.45;20.92;;;;;;;;;;5144595;27;20058;-76
2023/12/05 00:26:13;;;;;;;30.73;20.38;;;;;;;;;;5144581;27;20054;-76
2023/12/05 00:28:39;;;;;;;32.42;21.13;;;;;;;;;;5144471;27;20055;-76
2023/12/05 00:31:06;;;;;;;31.13;20.20;;;;;;;;;;5144373;27;20202;-76
2023/12/05 00:33:32;;;;;;;30.40;20.75;;;;;;;;;;5143750;27;20108;-76
2023/12/05 00:35:59;;;;;;;29.58;19.52;;;;;;;;;;5144200;27;20061;-76
2023/12/05 00:38:25;;;;;;;30.33;19.73;;;;;;;;;;5143783;27;20142;-76
2023/12/05 00:40:51;;;;;;;34.10;20.98;;;;;;;;;;5144751;27;20116;-76
2023/12/05 00:43:18;;;;;;;32.25;20.05;;;;;;;;;;5144453;27;20058;-75
2023/12/05 00:45:44;;;;;;;34.95;20.58;;;;;;;;;;5144889;27;20134;-76
2023/12/05 00:48:11;;;;;;;31.45;20.48;;;;;;;;;;5144275;27;20062;-75
2023/12/05 00:50:38;;;;;;;30.65;19.45;;;;;;;;;;5144953;27;20055;-76
2023/12/05 00:53:11;;;;;;;31.55;20.50;;;;;;;;;;5144808;27;20061;-76
2023/12/05 00:55:37;;;;;;;30.90;20.90;;;;;;;;;;5144028;27;20058;-75
2023/12/05 00:58:04;;;;;;;29.88;19.25;;;;;;;;;;5144353;27;20484;-76
2023/12/05 01:00:31;;;;;;;32.42;21.23;;;;;;;;;;5143683;27;20487;-76
2023/12/05 01:02:57;;;;;;;29.52;18.35;;;;;;;;;;5143294;27;20055;-76
2023/12/05 01:05:24;;;;;;;31.38;20.15;;;;;;;;;;5142636;27;20096;-76
2023/12/05 01:07:50;;;;;;;30.67;19.35;;;;;;;;;;5143969;27;20051;-76
2023/12/05 01:10:17;;;;;;;29.85;18.60;;;;;;;;;;5143959;27;20051;-76
2023/12/05 01:12:43;;;;;;;29.90;18.95;;;;;;;;;;5143957;27;20120;-76
2023/12/05 01:15:10;;;;;;;29.42;18.27;;;;;;;;;;5142323;27;20929;-76
2023/12/05 01:17:36;;;;;;;28.92;18.35;;;;;;;;;;5143096;27;20096;-76
2023/12/05 01:20:07;;;;;;;29.65;18.95;;;;;;;;;;5143995;27;20055;-77
2023/12/05 01:22:33;;;;;;;29.67;18.58;;;;;;;;;;5143431;27;20455;-76
2023/12/05 01:25:00;;;;;;;29.17;18.65;;;;;;;;;;5142909;27;20105;-75
2023/12/05 01:27:26;;;;;;;31.27;19.75;;;;;;;;;;5142322;27;20055;-76
2023/12/05 01:29:53;;;;;;;28.83;18.35;;;;;;;;;;5142221;27;20066;-76
2023/12/05 01:32:19;;;;;;;28.30;18.52;;;;;;;;;;5143247;27;20186;-76
2023/12/05 01:34:45;;;;;;;31.00;18.73;;;;;;;;;;5143453;27;20513;-76
2023/12/05 01:37:12;;;;;;;28.90;17.35;;;;;;;;;;5143537;27;20543;-76
2023/12/05 01:39:38;;;;;;;27.27;17.35;;;;;;;;;;5142152;27;20055;-76
2023/12/05 01:42:05;;;;;;;28.42;17.80;;;;;;;;;;5143382;27;20518;-76
2023/12/05 01:44:32;;;;;;;29.52;17.13;;;;;;;;;;5143199;27;20513;-76
2023/12/05 01:46:59;;;;;;;28.73;17.50;;;;;;;;;;5142804;27;20105;-76
2023/12/05 01:49:25;;;;;;;32.15;18.40;;;;;;;;;;5143268;27;20063;-76
2023/12/05 01:51:56;;;;;;;30.13;18.00;;;;;;;;;;5143035;27;20058;-76
2023/12/05 01:54:23;;;;;;;31.83;18.20;;;;;;;;;;5143761;27;20528;-76
2023/12/05 01:56:49;;;;;;;28.30;17.45;;;;;;;;;;5143633;27;20047;-76
2023/12/05 01:59:16;;;;;;;28.42;18.67;;;;;;;;;;5142980;27;20135;-76
2023/12/05 02:01:43;;;;;;;30.98;20.63;;;;;;;;;;5143003;27;20059;-77
2023/12/05 02:04:09;;;;;;;32.72;20.17;;;;;;;;;;5143342;27;20051;-76
2023/12/05 02:06:36;;;;;;;32.60;20.35;;;;;;;;;;5142881;27;20300;-76
2023/12/05 02:09:03;;;;;;;29.30;17.70;;;;;;;;;;5143017;27;20056;-76
2023/12/05 02:11:31;;;;;;;30.00;18.55;;;;;;;;;;5142704;27;20057;-76
2023/12/05 02:13:57;;;;;;;35.03;19.83;;;;;;;;;;5142978;27;20062;-76
2023/12/05 02:16:39;;;;;;;34.78;20.38;;;;;;;;;;5142079;27;20054;-76
2023/12/05 02:19:16;;;;;;;30.52;19.25;;;;;;;;;;5146287;27;20055;-76
2023/12/05 02:21:44;;;;;;;31.02;19.70;;;;;;;;;;5146808;27;20086;-76
2023/12/05 02:24:25;;;;;;;32.25;19.40;;;;;;;;;;5147072;27;20649;-76
2023/12/05 02:26:52;;;;;;;30.02;19.38;;;;;;;;;;5147475;27;20055;-76
2023/12/05 02:29:18;;;;;;;31.83;19.25;;;;;;;;;;5146452;27;20062;-76
2023/12/05 02:31:44;;;;;;;34.50;20.13;;;;;;;;;;5147749;27;20108;-76
2023/12/05 02:34:11;;;;;;;32.10;19.75;;;;;;;;;;5148567;27;20105;-76
2023/12/05 02:36:45;;;;;;;34.50;20.35;;;;;;;;;;5147082;27;20057;-76
2023/12/05 02:39:28;;;;;;;33.22;19.40;;;;;;;;;;5146958;27;20469;-76
2023/12/05 02:41:56;;;;;;;32.60;21.00;;;;;;;;;;5146193;27;20062;-76
2023/12/05 02:44:24;;;;;;;32.30;19.50;;;;;;;;;;5145657;27;20058;-76
2023/12/05 02:46:50;;;;;;;33.08;19.77;;;;;;;;;;5146523;27;20087;-76
2023/12/05 02:49:17;;;;;;;32.92;19.65;;;;;;;;;;5146669;27;22060;-76
2023/12/05 02:51:44;;;;;;;32.83;20.15;;;;;;;;;;5146979;27;20104;-77
2023/12/05 02:54:10;;;;;;;29.67;18.48;;;;;;;;;;5146523;27;20065;-76
2023/12/05 02:56:37;;;;;;;33.60;19.15;;;;;;;;;;5147036;27;20058;-76
2023/12/05 02:59:03;;;;;;;30.88;18.15;;;;;;;;;;5147076;27;20079;-76
2023/12/05 03:01:32;;;;;;;29.08;18.27;;;;;;;;;;5147617;27;20062;-77
2023/12/05 03:03:58;;;;;;;28.13;18.02;;;;;;;;;;5147959;27;20051;-77
2023/12/05 03:06:27;;;;;;;29.92;19.35;;;;;;;;;;5148048;27;20062;-76
2023/12/05 03:08:53;;;;;;;25.98;16.88;;;;;;;;;;5148565;27;20085;-76
2023/12/05 03:11:20;;;;;;;34.03;18.13;;;;;;;;;;5149318;27;20391;-76
2023/12/05 03:13:46;;;;;;;29.38;18.60;;;;;;;;;;5146851;27;20067;-76
2023/12/05 03:16:13;;;;;;;28.75;18.80;;;;;;;;;;5146110;27;20073;-76
2023/12/05 03:18:39;;;;;;;29.92;18.70;;;;;;;;;;5145157;27;20484;-76
2023/12/05 03:21:09;;;;;;;34.10;19.00;;;;;;;;;;5146194;27;20237;-77
2023/12/05 03:23:36;;;;;;;28.88;17.65;;;;;;;;;;5145636;27;20058;-76
2023/12/05 03:26:02;;;;;;;29.80;18.10;;;;;;;;;;5145716;27;20138;-76
2023/12/05 03:28:29;;;;;;;28.83;18.33;;;;;;;;;;5143786;27;20595;-74
2023/12/05 03:30:55;;;;;;;28.60;18.33;;;;;;;;;;5144608;27;20047;-75
2023/12/05 03:33:21;;;;;;;29.45;18.88;;;;;;;;;;5145616;27;20496;-75
2023/12/05 03:35:48;;;;;;;30.15;18.55;;;;;;;;;;5145510;27;20171;-75
2023/12/05 03:38:14;;;;;;;27.02;18.10;;;;;;;;;;5145117;27;20063;-75
2023/12/05 03:40:41;;;;;;;28.17;17.80;;;;;;;;;;5144920;27;20046;-75
2023/12/05 03:43:07;;;;;;;27.52;17.42;;;;;;;;;;5145105;27;20053;-75
2023/12/05 03:45:33;;;;;;;29.13;18.05;;;;;;;;;;5145065;27;20085;-75
2023/12/05 03:48:00;;;;;;;29.38;18.33;;;;;;;;;;5145271;27;20051;-75
2023/12/05 03:50:26;;;;;;;28.88;17.30;;;;;;;;;;5144388;27;20082;-76
2023/12/05 03:52:52;;;;;;;29.85;18.20;;;;;;;;;;5145030;27;20839;-76
2023/12/05 03:55:19;;;;;;;31.80;18.58;;;;;;;;;;5145235;27;20593;-76
2023/12/05 03:57:45;;;;;;;30.90;19.10;;;;;;;;;;5144632;27;20055;-76
2023/12/05 04:00:12;;;;;;;28.38;17.40;;;;;;;;;;5145333;27;20359;-76
2023/12/05 04:02:38;;;;;;;29.83;18.05;;;;;;;;;;5144542;27;20139;-76
2023/12/05 04:05:07;;;;;;;26.65;17.10;;;;;;;;;;5145269;27;20200;-75
2023/12/05 04:07:35;;;;;;;28.50;17.65;;;;;;;;;;5145213;27;20116;-75
2023/12/05 04:10:02;;;;;;;27.92;17.00;;;;;;;;;;5144571;27;20054;-75
2023/12/05 04:12:29;;;;;;;28.77;17.13;;;;;;;;;;5143677;27;20146;-75
2023/12/05 04:14:55;;;;;;;27.73;17.27;;;;;;;;;;5144161;27;20127;-75
2023/12/05 04:17:22;;;;;;;26.15;16.27;;;;;;;;;;5145207;27;20100;-75
2023/12/05 04:19:49;;;;;;;27.63;17.00;;;;;;;;;;5144545;27;20484;-76
2023/12/05 04:22:15;;;;;;;28.10;18.10;;;;;;;;;;5144895;27;20051;-75
2023/12/05 04:24:42;;;;;;;27.48;17.08;;;;;;;;;;5144663;27;20047;-75
2023/12/05 04:27:08;;;;;;;28.40;16.98;;;;;;;;;;5144840;27;20138;-76
2023/12/05 04:29:35;;;;;;;29.10;17.00;;;;;;;;;;5144102;27;20104;-76
2023/12/05 04:32:02;;;;;;;27.95;17.55;;;;;;;;;;5144133;27;20527;-76
2023/12/05 04:34:28;;;;;;;27.75;16.77;;;;;;;;;;5144263;27;20059;-76
2023/12/05 04:36:55;;;;;;;29.10;17.42;;;;;;;;;;5144285;27;20055;-76
2023/12/05 04:39:22;;;;;;;26.73;16.50;;;;;;;;;;5143751;27;20113;-76
2023/12/05 04:41:49;;;;;;;28.85;16.52;;;;;;;;;;5143060;27;20132;-76
2023/12/05 04:44:15;;;;;;;30.60;17.38;;;;;;;;;;5143523;27;20051;-76
2023/12/05 04:46:41;;;;;;;28.48;17.67;;;;;;;;;;5144517;27;20511;-76
2023/12/05 04:49:08;;;;;;;26.48;16.33;;;;;;;;;;5144464;27;20565;-76
2023/12/05 04:51:35;;;;;;;32.10;17.63;;;;;;;;;;5144097;27;20055;-76
2023/12/05 04:54:01;;;;;;;27.52;17.27;;;;;;;;;;5143569;27;20088;-75
2023/12/05 04:56:28;;;;;;;27.15;17.00;;;;;;;;;;5143581;27;20047;-76
2023/12/05 04:58:54;;;;;;;26.38;15.85;;;;;;;;;;5143818;27;20488;-76
2023/12/05 05:01:21;;;;;;;28.13;17.33;;;;;;;;;;5142557;27;20145;-75
2023/12/05 05:03:48;;;;;;;27.95;17.90;;;;;;;;;;5144489;27;20271;-75
2023/12/05 05:06:14;;;;;;;29.65;17.65;;;;;;;;;;5144603;27;20062;-75
2023/12/05 05:08:42;;;;;;;32.28;16.90;;;;;;;;;;5143049;27;20074;-75
2023/12/05 05:11:08;;;;;;;28.75;16.60;;;;;;;;;;5144497;27;20051;-76
2023/12/05 05:13:35;;;;;;;27.77;17.13;;;;;;;;;;5146042;27;20131;-76
2023/12/05 05:16:14;;;;;;;25.00;15.82;;;;;;;;;;5146843;27;20055;-76
2023/12/05 05:18:41;;;;;;;29.52;18.20;;;;;;;;;;5144330;27;20051;-76
2023/12/05 05:21:08;;;;;;;28.10;16.45;;;;;;;;;;5145521;27;20446;-76
2023/12/05 05:23:34;;;;;;;32.45;18.92;;;;;;;;;;5144994;27;20126;-75
2023/12/05 05:26:00;;;;;;;27.73;16.75;;;;;;;;;;5144192;27;20633;-76
2023/12/05 05:28:27;;;;;;;32.95;17.20;;;;;;;;;;5144461;27;20079;-76
2023/12/05 05:30:54;;;;;;;29.27;16.73;;;;;;;;;;5143870;27;20055;-76
2023/12/05 05:33:21;;;;;;;33.15;18.30;;;;;;;;;;5140172;27;20055;-76
2023/12/05 05:35:48;;;;;;;31.63;18.15;;;;;;;;;;5124925;27;20055;-75
2023/12/05 05:38:14;;;;;;;33.65;19.45;;;;;;;;;;5143425;27;20059;-76
2023/12/05 05:40:42;;;;;;;27.95;17.17;;;;;;;;;;5138229;27;20056;-76
2023/12/05 05:43:08;;;;;;;31.17;18.77;;;;;;;;;;5136026;27;20051;-76
2023/12/05 05:45:35;;;;;;;34.67;19.70;;;;;;;;;;5127600;27;20063;-75
2023/12/05 05:48:01;;;;;;;32.40;19.58;;;;;;;;;;5143458;27;20051;-76
2023/12/05 05:50:28;;;;;;;32.00;17.05;;;;;;;;;;5144248;27;20059;-75
2023/12/05 05:52:55;;;;;;;32.13;18.48;;;;;;;;;;5146898;27;20100;-76
2023/12/05 05:55:24;;;;;;;27.60;16.80;;;;;;;;;;5148403;27;20079;-76
2023/12/05 05:57:51;;;;;;;32.35;18.27;;;;;;;;;;5147442;27;20179;-76
2023/12/05 06:00:18;;;;;;;34.53;18.85;;;;;;;;;;5147756;27;20058;-74
2023/12/05 06:02:44;;;;;;;31.48;17.05;;;;;;;;;;5148109;27;20484;-74
2023/12/05 06:05:11;;;;;;;34.72;19.05;;;;;;;;;;5148873;27;20522;-75
2023/12/05 06:07:37;;;;;;;32.70;18.10;;;;;;;;;;5146351;27;20058;-74
2023/12/05 06:10:04;;;;;;;32.00;18.27;;;;;;;;;;5135972;27;20100;-76
2023/12/05 06:12:32;;;;;;;31.48;17.70;;;;;;;;;;5145174;27;20182;-76
2023/12/05 06:14:58;;;;;;;30.52;17.70;;;;;;;;;;5147405;27;20147;-76
2023/12/05 06:17:25;;;;;;;30.38;18.25;;;;;;;;;;5144951;27;20492;-74
2023/12/05 06:19:51;;;;;;;32.10;18.73;;;;;;;;;;5129394;27;20138;-76
2023/12/05 06:22:18;;;;;;;31.65;18.67;;;;;;;;;;5127059;27;20056;-76
2023/12/05 06:24:44;;;;;;;29.10;17.42;;;;;;;;;;5125930;27;20059;-76
2023/12/05 06:27:11;;;;;;;30.23;17.58;;;;;;;;;;5126070;27;20052;-76
2023/12/05 06:29:37;;;;;;;31.52;17.60;;;;;;;;;;5133223;27;20130;-77
2023/12/05 06:32:04;;;;;;;29.08;17.60;;;;;;;;;;5146773;27;20054;-77
2023/12/05 06:34:30;;;;;;;31.83;17.52;;;;;;;;;;5146379;27;20055;-76
2023/12/05 06:36:57;;;;;;;32.03;18.20;;;;;;;;;;5142109;27;20497;-75
2023/12/05 06:39:23;;;;;;;32.00;17.90;;;;;;;;;;5140410;27;20047;-76
2023/12/05 06:41:50;;;;;;;30.65;18.55;;;;;;;;;;5125699;27;20125;-76
2023/12/05 06:44:16;;;;;;;27.63;16.00;;;;;;;;;;5142885;27;20052;-76
2023/12/05 06:46:42;;;;;;;31.15;16.40;;;;;;;;;;5145639;27;20047;-76
2023/12/05 06:49:09;;;;;;;32.90;18.35;;;;;;;;;;5143165;27;20108;-76
2023/12/05 06:51:35;;;;;;;30.05;18.23;;;;;;;;;;5145029;27;20342;-77
2023/12/05 06:54:03;;;;;;;28.08;17.25;;;;;;;;;;5142925;27;20599;-76
2023/12/05 06:56:29;;;;;;;31.58;16.42;;;;;;;;;;5145138;27;20051;-76
2023/12/05 06:58:56;;;;;;;28.75;16.42;;;;;;;;;;5145532;27;20497;-75
2023/12/05 07:01:23;;;;;;;29.45;16.75;;;;;;;;;;5145474;27;20508;-75
2023/12/05 07:03:49;;;;;;;29.52;16.75;;;;;;;;;;5134877;27;20537;-76
2023/12/05 07:06:22;;;;;;;30.65;17.23;;;;;;;;;;5144541;27;20466;-76
2023/12/05 07:08:49;;;;;;;30.35;17.92;;;;;;;;;;5145039;27;20051;-76
2023/12/05 07:11:15;;;;;;;35.88;18.02;;;;;;;;;;5143679;27;20062;-76
2023/12/05 07:13:43;;;;;;;33.72;18.33;;;;;;;;;;5133645;27;20047;-75
2023/12/05 07:16:10;;;;;;;31.73;18.05;;;;;;;;;;5138457;27;20105;-76
2023/12/05 07:18:37;;;;;;;32.33;17.58;;;;;;;;;;5150405;27;20047;-75
2023/12/05 07:21:04;;;;;;;31.35;16.80;;;;;;;;;;5139464;27;20051;-76
2023/12/05 07:23:31;;;;;;;31.05;17.67;;;;;;;;;;5143538;27;20047;-75
2023/12/05 07:25:57;;;;;;;28.70;16.75;;;;;;;;;;5138473;27;20199;-76
2023/12/05 07:28:24;;;;;;;29.58;16.75;;;;;;;;;;5136693;27;20058;-77
2023/12/05 07:30:50;;;;;;;30.40;17.02;;;;;;;;;;5148492;27;20142;-77
2023/12/05 07:33:19;;;;;;;28.63;16.85;;;;;;;;;;5148683;27;20051;-76
2023/12/05 07:35:46;;;;;;;26.38;16.50;;;;;;;;;;5143298;27;20051;-76
2023/12/05 07:38:12;;;;;;;29.58;15.93;;;;;;;;;;5144813;27;20312;-77
2023/12/05 07:40:39;;;;;;;27.35;15.75;;;;;;;;;;5140286;27;20087;-76
2023/12/05 07:43:05;;;;;;;27.63;16.88;;;;;;;;;;5150045;27;20272;-76
2023/12/05 07:45:31;;;;;;;31.55;16.98;;;;;;;;;;5140981;27;20515;-76
2023/12/05 07:47:58;;;;;;;30.88;17.23;;;;;;;;;;5143703;27;20116;-76
2023/12/05 07:50:25;;;;;;;30.05;17.63;;;;;;;;;;5155108;27;20145;-77
2023/12/05 07:52:51;;;;;;;32.35;18.02;;;;;;;;;;5146121;27;20054;-76
2023/12/05 07:55:18;;;;;;;35.17;19.10;;;;;;;;;;5144367;27;20078;-76
2023/12/05 07:57:47;;;;;;;36.00;17.90;;;;;;;;;;5144400;27;20047;-76
2023/12/05 08:00:16;;;;;;;33.70;17.60;;;;;;;;;;5145251;27;20581;-77
2023/12/05 08:02:43;;;;;;;38.75;18.17;;;;;;;;;;5143013;27;20128;-76
2023/12/05 08:05:12;;;;;;;34.72;19.23;;;;;;;;;;5143954;27;20104;-76
2023/12/05 08:07:38;;;;;;;31.02;18.23;;;;;;;;;;5142499;27;20566;-76
2023/12/05 08:10:05;;;;;;;35.50;19.73;;;;;;;;;;5142945;27;20066;-75
2023/12/05 08:12:32;;;;;;;35.00;18.88;;;;;;;;;;5142726;27;20429;-75
2023/12/05 08:14:58;;;;;;;32.55;19.77;;;;;;;;;;5142502;27;20051;-75
2023/12/05 08:17:25;;;;;;;30.33;18.65;;;;;;;;;;5142070;27;20051;-76
2023/12/05 08:19:51;;;;;;;32.08;18.17;;;;;;;;;;5143700;27;20051;-76
2023/12/05 08:22:18;;;;;;;39.05;20.35;;;;;;;;;;5142009;27;20418;-76
2023/12/05 08:24:44;;;;;;;29.10;18.23;;;;;;;;;;5143231;27;20051;-76
2023/12/05 08:27:11;;;;;;;32.42;19.25;;;;;;;;;;5142838;27;20054;-76
2023/12/05 08:29:37;;;;;;;35.15;19.30;;;;;;;;;;5143398;27;20061;-76
2023/12/05 08:32:05;;;;;;;30.50;18.83;;;;;;;;;;5142179;27;20518;-76
2023/12/05 08:34:31;;;;;;;30.13;18.77;;;;;;;;;;5142436;27;20061;-76
2023/12/05 08:36:58;;;;;;;32.60;19.13;;;;;;;;;;5142236;27;20061;-76
2023/12/05 08:39:24;;;;;;;36.33;20.70;;;;;;;;;;5143297;27;20058;-76
2023/12/05 08:41:51;;;;;;;33.40;19.17;;;;;;;;;;5142931;27;20047;-76
2023/12/05 08:44:19;;;;;;;36.05;19.88;;;;;;;;;;5141596;27;20057;-76
2023/12/05 08:46:46;;;;;;;36.63;19.52;;;;;;;;;;5147233;27;20224;-76
2023/12/05 08:49:13;;;;;;;37.42;20.05;;;;;;;;;;5143391;27;20310;-77
2023/12/05 08:51:40;;;;;;;34.95;19.25;;;;;;;;;;5142492;27;20058;-76
2023/12/05 08:54:06;;;;;;;40.20;21.15;;;;;;;;;;5143150;27;20051;-76
2023/12/05 08:56:32;;;;;;;36.10;18.92;;;;;;;;;;5142362;27;20135;-76
2023/12/05 08:58:59;;;;;;;35.65;19.25;;;;;;;;;;5143282;27;20083;-77
2023/12/05 09:01:25;;;;;;;29.17;18.40;;;;;;;;;;5142373;27;20047;-76
2023/12/05 09:03:52;;;;;;;34.95;20.10;;;;;;;;;;5142155;27;20051;-76
2023/12/05 09:06:18;;;;;;;35.97;19.55;;;;;;;;;;5142942;27;20055;-77
2023/12/05 09:08:45;;;;;;;35.53;19.77;;;;;;;;;;5134914;27;20044;-76
2023/12/05 09:11:12;;;;;;;36.45;20.33;;;;;;;;;;5175372;27;20479;-76
2023/12/05 09:13:38;;;;;;;36.03;20.67;;;;;;;;;;5143378;27;20047;-76
2023/12/05 09:16:05;;;;;;;38.63;20.33;;;;;;;;;;5154102;27;20904;-76
2023/12/05 09:18:31;;;;;;;38.75;21.17;;;;;;;;;;5143706;27;20099;-76
2023/12/05 09:20:58;;;;;;;36.95;21.50;;;;;;;;;;5142367;27;20043;-76
2023/12/05 09:23:26;;;;;;;36.60;20.95;;;;;;;;;;5141935;27;20058;-77
2023/12/05 09:25:53;;;;;;;36.85;22.35;;;;;;;;;;5137501;27;20648;-77
2023/12/05 09:28:19;;;;;;;38.63;21.25;;;;;;;;;;5146234;27;20047;-77
2023/12/05 09:30:45;;;;;;;39.53;21.25;;;;;;;;;;5145850;27;20058;-76
2023/12/05 09:33:12;;;;;;;37.22;21.25;;;;;;;;;;5144572;27;20374;-77
2023/12/05 09:35:38;;;;;;;41.30;21.27;;;;;;;;;;5145819;27;20051;-77
2023/12/05 09:38:05;;;;;;;36.60;21.15;;;;;;;;;;5149794;27;20500;-76
2023/12/05 09:40:31;;;;;;;38.67;21.55;;;;;;;;;;5145570;27;20085;-76
2023/12/05 09:42:59;;;;;;;39.67;21.67;;;;;;;;;;5141407;27;20062;-75
2023/12/05 09:45:28;;;;;;;35.05;20.90;;;;;;;;;;5143923;27;20047;-77
2023/12/05 09:47:58;;;;;;;38.50;21.67;;;;;;;;;;5137693;27;20043;-76
2023/12/05 09:50:24;;;;;;;38.10;21.13;;;;;;;;;;5145547;27;20508;-77
2023/12/05 09:52:51;;;;;;;40.05;20.73;;;;;;;;;;5145914;27;20146;-77
2023/12/05 09:55:18;;;;;;;38.30;20.77;;;;;;;;;;5150031;27;20182;-76
2023/12/05 09:57:47;;;;;;;38.83;21.27;;;;;;;;;;5155193;27;20051;-75
2023/12/05 10:00:13;;;;;;;37.45;20.60;;;;;;;;;;5139399;27;20551;-76
2023/12/05 10:02:42;;;;;;;35.33;21.08;;;;;;;;;;5150721;27;20056;-76
2023/12/05 10:05:10;;;;;;;41.50;22.02;;;;;;;;;;5145305;27;20051;-76
2023/12/05 10:07:37;;;;;;;36.67;20.80;;;;;;;;;;5145240;27;20054;-76
2023/12/05 10:10:04;;;;;;;40.63;22.75;;;;;;;;;;5145279;27;20051;-76
2023/12/05 10:12:31;;;;;;;41.53;22.65;;;;;;;;;;5145170;27;20137;-75
2023/12/05 10:14:58;;;;;;;34.15;20.40;;;;;;;;;;5142925;27;20058;-76
2023/12/05 10:17:26;;;;;;;36.65;21.77;;;;;;;;;;5135647;27;20145;-76
2023/12/05 10:19:53;;;;;;;38.05;22.45;;;;;;;;;;5136370;27;20044;-76
2023/12/05 10:22:19;;;;;;;37.55;21.42;;;;;;;;;;5144774;27;20100;-76
2023/12/05 10:24:46;;;;;;;37.00;21.45;;;;;;;;;;5144831;27;20055;-76
2023/12/05 10:27:12;;;;;;;34.83;21.30;;;;;;;;;;5144601;27;20654;-76
2023/12/05 10:29:41;;;;;;;35.45;20.77;;;;;;;;;;5144977;27;20094;-76
2023/12/05 10:32:10;;;;;;;35.10;19.92;;;;;;;;;;5157356;27;20046;-76
2023/12/05 10:34:49;;;;;;;37.35;21.05;;;;;;;;;;5138764;27;20051;-76
2023/12/05 10:37:20;;;;;;;33.53;20.45;;;;;;;;;;5143782;27;20057;-76
2023/12/05 10:39:48;;;;;;;36.22;20.58;;;;;;;;;;5145265;27;20047;-76
2023/12/05 10:42:14;;;;;;;36.70;20.58;;;;;;;;;;5144785;27;20055;-76
2023/12/05 10:44:41;;;;;;;38.35;21.20;;;;;;;;;;5144871;27;20061;-76
2023/12/05 10:47:08;;;;;;;39.05;21.75;;;;;;;;;;5144088;27;20047;-76
2023/12/05 10:49:35;;;;;;;37.17;20.25;;;;;;;;;;5144967;27;20514;-76
2023/12/05 10:52:03;;;;;;;34.15;19.38;;;;;;;;;;5144541;27;20047;-76
2023/12/05 10:54:29;;;;;;;38.20;21.75;;;;;;;;;;5144858;27;20047;-76
2023/12/05 10:56:57;;;;;;;35.42;19.80;;;;;;;;;;5151683;27;20067;-75
2023/12/05 10:59:25;;;;;;;33.85;19.90;;;;;;;;;;5141290;27;20055;-75
2023/12/05 11:01:54;;;;;;;34.90;20.25;;;;;;;;;;5147073;27;20055;-75
2023/12/05 11:04:21;;;;;;;35.75;20.20;;;;;;;;;;5143471;27;20051;-75
2023/12/05 11:06:47;;;;;;;36.33;18.83;;;;;;;;;;5142558;27;20047;-75
2023/12/05 11:09:14;;;;;;;35.55;20.02;;;;;;;;;;5138885;27;20078;-75
2023/12/05 11:11:40;;;;;;;35.30;19.73;;;;;;;;;;5143279;27;20051;-75
2023/12/05 11:14:09;;;;;;;35.95;21.52;;;;;;;;;;5144076;27;20317;-75
2023/12/05 11:16:39;;;;;;;33.47;19.38;;;;;;;;;;5138542;27;20051;-75
2023/12/05 11:19:17;;;;;;;35.38;21.38;;;;;;;;;;5144149;27;20496;-76
2023/12/05 11:22:06;;;;;;;33.30;20.48;;;;;;;;;;5144802;27;20104;-76
2023/12/05 11:24:52;;;;;;;37.17;20.75;;;;;;;;;;5125547;27;20473;-75
2023/12/05 11:27:21;;;;;;;36.92;20.27;;;;;;;;;;5136178;27;20055;-75
2023/12/05 11:30:08;;;;;;;35.40;19.95;;;;;;;;;;5143895;27;20199;-76
2023/12/05 11:32:42;;;;;;;37.47;20.77;;;;;;;;;;5142425;27;20051;-77
2023/12/05 11:35:28;;;;;;;34.95;20.38;;;;;;;;;;5124020;27;20130;-75
2023/12/05 11:38:06;;;;;;;38.15;20.85;;;;;;;;;;5142322;27;20560;-75
2023/12/05 11:40:32;;;;;;;31.35;19.27;;;;;;;;;;5143406;27;20130;-74
2023/12/05 11:43:05;;;;;;;34.75;21.25;;;;;;;;;;5131627;27;20043;-75
2023/12/05 11:45:32;;;;;;;38.17;20.05;;;;;;;;;;5132955;27;20132;-76
2023/12/05 11:47:58;;;;;;;39.63;22.35;;;;;;;;;;5144265;27;20151;-76
2023/12/05 11:50:25;;;;;;;35.40;20.83;;;;;;;;;;5142228;27;20049;-76
2023/12/05 11:52:51;;;;;;;39.63;20.95;;;;;;;;;;5143153;27;20104;-76
2023/12/05 11:55:18;;;;;;;36.33;20.55;;;;;;;;;;5124651;27;20052;-76
2023/12/05 11:57:45;;;;;;;37.95;20.73;;;;;;;;;;5142837;27;20097;-74
2023/12/05 12:00:12;;;;;;;37.72;20.77;;;;;;;;;;5142851;27;20650;-76
2023/12/05 12:02:43;;;;;;;41.15;22.45;;;;;;;;;;5143204;27;20051;-76
2023/12/05 12:05:11;;;;;;;41.35;21.63;;;;;;;;;;5143151;27;20164;-75
2023/12/05 12:07:53;;;;;;;37.08;20.63;;;;;;;;;;5143398;27;20051;-76
2023/12/05 12:10:19;;;;;;;40.58;22.95;;;;;;;;;;5142820;27;20458;-75
2023/12/05 12:12:46;;;;;;;39.08;22.05;;;;;;;;;;5142959;27;20062;-76
2023/12/05 12:15:13;;;;;;;35.47;21.40;;;;;;;;;;5152398;27;20326;-75
2023/12/05 12:17:45;;;;;;;39.83;20.92;;;;;;;;;;5143955;27;20681;-75
2023/12/05 12:20:12;;;;;;;39.35;20.85;;;;;;;;;;5143319;27;20051;-75
2023/12/05 12:22:39;;;;;;;38.38;21.40;;;;;;;;;;5144670;27;20525;-75
2023/12/05 12:25:12;;;;;;;35.40;19.75;;;;;;;;;;5144521;27;20058;-76
2023/12/05 12:27:39;;;;;;;40.83;21.27;;;;;;;;;;5145391;27;20051;-75
2023/12/05 12:30:11;;;;;;;34.28;20.90;;;;;;;;;;5143322;27;20488;-75
2023/12/05 12:32:51;;;;;;;37.40;21.40;;;;;;;;;;5141874;27;20051;-75
2023/12/05 12:35:19;;;;;;;39.95;21.45;;;;;;;;;;5142611;27;20051;-75
2023/12/05 12:37:46;;;;;;;41.88;22.63;;;;;;;;;;5142565;27;20059;-76
2023/12/05 12:40:18;;;;;;;38.45;21.02;;;;;;;;;;5143600;27;20051;-75
2023/12/05 12:42:51;;;;;;;38.28;21.30;;;;;;;;;;5142909;27;20703;-76
2023/12/05 12:45:20;;;;;;;41.10;22.23;;;;;;;;;;5143966;27;20051;-75
2023/12/05 12:47:47;;;;;;;36.35;21.35;;;;;;;;;;5142654;27;20574;-75
2023/12/05 12:50:14;;;;;;;38.67;21.88;;;;;;;;;;5142106;27;20526;-75
2023/12/05 12:52:41;;;;;;;42.67;20.75;;;;;;;;;;5142414;27;20055;-75
2023/12/05 12:55:11;;;;;;;42.85;21.60;;;;;;;;;;5141484;27;20150;-75
2023/12/05 12:57:40;;;;;;;41.47;22.35;;;;;;;;;;5142209;27;20101;-75
2023/12/05 13:00:09;;;;;;;41.85;21.50;;;;;;;;;;5142980;27;20063;-75
2023/12/05 13:02:56;;;;;;;41.33;22.65;;;;;;;;;;5142546;27;20047;-75
2023/12/05 13:05:32;;;;;;;42.97;23.55;;;;;;;;;;5143026;27;20050;-75
2023/12/05 13:08:00;;;;;;;36.40;20.67;;;;;;;;;;5130471;27;20776;-75
2023/12/05 13:10:29;;;;;;;35.65;20.25;;;;;;;;;;5142784;27;20051;-75
2023/12/05 13:12:59;;;;;;;39.67;21.25;;;;;;;;;;5143304;27;20680;-75
2023/12/05 13:15:28;;;;;;;43.78;21.88;;;;;;;;;;5141894;27;20625;-75
2023/12/05 13:17:55;;;;;;;35.72;19.15;;;;;;;;;;5142418;27;20086;-75
2023/12/05 13:20:21;;;;;;;37.85;21.55;;;;;;;;;;5142120;27;20043;-75
2023/12/05 13:22:48;;;;;;;40.45;22.77;;;;;;;;;;5142142;27;20055;-75
2023/12/05 13:25:15;;;;;;;40.58;22.20;;;;;;;;;;5137392;27;20052;-75
2023/12/05 13:27:41;;;;;;;39.35;22.08;;;;;;;;;;5141800;27;20076;-76
2023/12/05 13:30:07;;;;;;;42.70;21.48;;;;;;;;;;5142171;27;20043;-75
2023/12/05 13:32:34;;;;;;;40.65;22.77;;;;;;;;;;5142992;27;20047;-75
2023/12/05 13:35:00;;;;;;;38.10;21.27;;;;;;;;;;5142314;27;20202;-75
2023/12/05 13:37:27;;;;;;;45.90;22.05;;;;;;;;;;5141169;27;20059;-75
2023/12/05 13:39:53;;;;;;;36.60;20.30;;;;;;;;;;5141926;27;20046;-76
2023/12/05 13:42:19;;;;;;;42.47;21.45;;;;;;;;;;5143029;27;20055;-76
2023/12/05 13:44:46;;;;;;;41.10;21.25;;;;;;;;;;5142543;27;20537;-76
2023/12/05 13:47:12;;;;;;;39.55;21.00;;;;;;;;;;5142434;27;20239;-76
2023/12/05 13:49:39;;;;;;;41.83;21.33;;;;;;;;;;5142385;27;20051;-75
2023/12/05 13:52:05;;;;;;;40.58;22.42;;;;;;;;;;5142860;27;20098;-75
2023/12/05 13:54:32;;;;;;;36.55;20.90;;;;;;;;;;5142862;27;20051;-76
2023/12/05 13:56:58;;;;;;;46.75;23.55;;;;;;;;;;5140686;27;20051;-75
2023/12/05 13:59:24;;;;;;;38.10;20.92;;;;;;;;;;5128529;27;20104;-76
2023/12/05 14:01:51;;;;;;;40.70;22.80;;;;;;;;;;5145812;27;20077;-77
2023/12/05 14:04:18;;;;;;;41.92;22.38;;;;;;;;;;5142109;27;20353;-76
2023/12/05 14:06:44;;;;;;;43.20;22.98;;;;;;;;;;5141948;27;20062;-76
2023/12/05 14:09:11;;;;;;;42.95;22.88;;;;;;;;;;5141860;27;20528;-76
2023/12/05 14:11:43;;;;;;;43.85;23.40;;;;;;;;;;5141613;27;20055;-76
2023/12/05 14:14:10;;;;;;;41.88;21.30;;;;;;;;;;5151695;27;20142;-76
2023/12/05 14:16:37;;;;;;;40.80;21.85;;;;;;;;;;5145163;27;20047;-76
2023/12/05 14:19:03;;;;;;;43.50;21.90;;;;;;;;;;5145498;27;20078;-76